sensor_id;sensor_type;location;lat;lon;timestamp;P1;durP1;ratioP1;P2;durP2;ratioP2
61330;SDS011;71993;52.478;-1.918;2023-09-07T00:01:34;8.98;;;7.50;;
61330;SDS011;71993;52.478;-1.918;2023-09-07T00:04:06;9.55;;;7.60;;
61330;SDS011;71993;52.478;-1.918;2023-09-07T00:06:36;10.50;;;7.47;;
61330;SDS011;71993;52.478;-1.918;2023-09-07T00:09:07;10.48;;;8.52;;
61330;SDS011;71993;52.478;-1.918;2023-09-07T00:11:39;13.05;;;8.63;;
61330;SDS011;71993;52.478;-1.918;2023-09-07T00:14:09;10.13;;;8.07;;
61330;SDS011;71993;52.478;-1.918;2023-09-07T00:16:42;10.30;;;8.45;;
61330;SDS011;71993;52.478;-1.918;2023-09-07T00:19:13;8.15;;;7.20;;
61330;SDS011;71993;52.478;-1.918;2023-09-07T00:21:43;8.18;;;7.38;;
61330;SDS011;71993;52.478;-1.918;2023-09-07T00:24:14;9.40;;;7.95;;
61330;SDS011;71993;52.478;-1.918;2023-09-07T00:26:45;9.45;;;7.47;;
61330;SDS011;71993;52.478;-1.918;2023-09-07T00:29:15;9.93;;;7.82;;
61330;SDS011;71993;52.478;-1.918;2023-09-07T00:31:48;10.77;;;9.15;;
61330;SDS011;71993;52.478;-1.918;2023-09-07T00:34:19;11.63;;;10.20;;
61330;SDS011;71993;52.478;-1.918;2023-09-07T00:36:49;10.55;;;9.45;;
61330;SDS011;71993;52.478;-1.918;2023-09-07T00:39:20;12.15;;;10.10;;
61330;SDS011;71993;52.478;-1.918;2023-09-07T00:41:50;12.40;;;11.10;;
61330;SDS011;71993;52.478;-1.918;2023-09-07T00:44:22;11.48;;;10.27;;
61330;SDS011;71993;52.478;-1.918;2023-09-07T00:46:56;11.43;;;10.02;;
61330;SDS011;71993;52.478;-1.918;2023-09-07T00:49:26;11.15;;;10.05;;
61330;SDS011;71993;52.478;-1.918;2023-09-07T00:51:57;11.05;;;9.95;;
61330;SDS011;71993;52.478;-1.918;2023-09-07T00:54:27;10.88;;;9.32;;
61330;SDS011;71993;52.478;-1.918;2023-09-07T00:56:58;10.48;;;9.35;;
61330;SDS011;71993;52.478;-1.918;2023-09-07T00:59:30;9.25;;;8.35;;
61330;SDS011;71993;52.478;-1.918;2023-09-07T01:02:04;10.43;;;8.13;;
61330;SDS011;71993;52.478;-1.918;2023-09-07T01:04:35;9.68;;;8.10;;
61330;SDS011;71993;52.478;-1.918;2023-09-07T01:07:07;10.77;;;8.77;;
61330;SDS011;71993;52.478;-1.918;2023-09-07T01:09:39;9.90;;;8.77;;
61330;SDS011;71993;52.478;-1.918;2023-09-07T01:12:13;8.80;;;7.90;;
61330;SDS011;71993;52.478;-1.918;2023-09-07T01:14:44;9.18;;;7.60;;
61330;SDS011;71993;52.478;-1.918;2023-09-07T01:17:18;8.50;;;7.50;;
61330;SDS011;71993;52.478;-1.918;2023-09-07T01:19:49;9.07;;;7.88;;
61330;SDS011;71993;52.478;-1.918;2023-09-07T01:22:22;9.02;;;7.15;;
61330;SDS011;71993;52.478;-1.918;2023-09-07T01:24:53;9.20;;;7.40;;
61330;SDS011;71993;52.478;-1.918;2023-09-07T01:27:24;8.38;;;7.00;;
61330;SDS011;71993;52.478;-1.918;2023-09-07T01:29:54;8.38;;;7.53;;
61330;SDS011;71993;52.478;-1.918;2023-09-07T01:32:25;9.23;;;7.40;;
61330;SDS011;71993;52.478;-1.918;2023-09-07T01:34:56;8.80;;;7.40;;
61330;SDS011;71993;52.478;-1.918;2023-09-07T01:37:30;9.68;;;6.93;;
61330;SDS011;71993;52.478;-1.918;2023-09-07T01:40:01;9.50;;;7.60;;
61330;SDS011;71993;52.478;-1.918;2023-09-07T01:42:34;11.10;;;8.25;;
61330;SDS011;71993;52.478;-1.918;2023-09-07T01:45:06;12.65;;;9.00;;
61330;SDS011;71993;52.478;-1.918;2023-09-07T01:47:37;10.82;;;9.07;;
61330;SDS011;71993;52.478;-1.918;2023-09-07T01:50:08;10.38;;;8.75;;
61330;SDS011;71993;52.478;-1.918;2023-09-07T01:52:42;10.40;;;8.77;;
61330;SDS011;71993;52.478;-1.918;2023-09-07T01:55:12;11.90;;;9.30;;
61330;SDS011;71993;52.478;-1.918;2023-09-07T01:57:43;10.50;;;9.40;;
61330;SDS011;71993;52.478;-1.918;2023-09-07T02:00:14;10.60;;;9.02;;
61330;SDS011;71993;52.478;-1.918;2023-09-07T02:02:47;10.40;;;8.45;;
61330;SDS011;71993;52.478;-1.918;2023-09-07T02:05:17;10.30;;;8.30;;
61330;SDS011;71993;52.478;-1.918;2023-09-07T02:07:51;8.45;;;7.53;;
61330;SDS011;71993;52.478;-1.918;2023-09-07T02:10:22;9.90;;;7.65;;
61330;SDS011;71993;52.478;-1.918;2023-09-07T02:12:52;8.48;;;7.57;;
61330;SDS011;71993;52.478;-1.918;2023-09-07T02:15:24;9.60;;;8.20;;
61330;SDS011;71993;52.478;-1.918;2023-09-07T02:17:54;8.73;;;7.22;;
61330;SDS011;71993;52.478;-1.918;2023-09-07T02:20:25;9.05;;;7.43;;
61330;SDS011;71993;52.478;-1.918;2023-09-07T02:22:58;9.05;;;8.10;;
61330;SDS011;71993;52.478;-1.918;2023-09-07T02:25:30;9.05;;;8.07;;
61330;SDS011;71993;52.478;-1.918;2023-09-07T02:28:02;9.65;;;7.57;;
61330;SDS011;71993;52.478;-1.918;2023-09-07T02:30:33;11.70;;;7.63;;
61330;SDS011;71993;52.478;-1.918;2023-09-07T02:33:03;8.63;;;7.70;;
61330;SDS011;71993;52.478;-1.918;2023-09-07T02:35:36;8.88;;;7.70;;
61330;SDS011;71993;52.478;-1.918;2023-09-07T02:38:09;8.95;;;7.97;;
61330;SDS011;71993;52.478;-1.918;2023-09-07T02:40:41;7.22;;;6.53;;
61330;SDS011;71993;52.478;-1.918;2023-09-07T02:43:12;8.65;;;7.75;;
61330;SDS011;71993;52.478;-1.918;2023-09-07T02:45:43;8.75;;;7.65;;
61330;SDS011;71993;52.478;-1.918;2023-09-07T02:48:14;8.55;;;7.65;;
61330;SDS011;71993;52.478;-1.918;2023-09-07T02:50:44;10.63;;;8.40;;
61330;SDS011;71993;52.478;-1.918;2023-09-07T02:53:20;9.65;;;7.97;;
61330;SDS011;71993;52.478;-1.918;2023-09-07T02:55:51;10.50;;;8.68;;
61330;SDS011;71993;52.478;-1.918;2023-09-07T02:58:24;9.38;;;7.55;;
61330;SDS011;71993;52.478;-1.918;2023-09-07T03:00:55;9.27;;;7.47;;
61330;SDS011;71993;52.478;-1.918;2023-09-07T03:03:27;9.15;;;6.72;;
61330;SDS011;71993;52.478;-1.918;2023-09-07T03:05:57;8.38;;;7.00;;
61330;SDS011;71993;52.478;-1.918;2023-09-07T03:08:30;7.93;;;7.13;;
61330;SDS011;71993;52.478;-1.918;2023-09-07T03:11:02;7.43;;;6.63;;
61330;SDS011;71993;52.478;-1.918;2023-09-07T03:13:33;7.35;;;6.65;;
61330;SDS011;71993;52.478;-1.918;2023-09-07T03:16:04;8.35;;;7.18;;
61330;SDS011;71993;52.478;-1.918;2023-09-07T03:18:35;8.55;;;7.07;;
61330;SDS011;71993;52.478;-1.918;2023-09-07T03:21:06;8.88;;;6.90;;
61330;SDS011;71993;52.478;-1.918;2023-09-07T03:23:39;9.02;;;7.78;;
61330;SDS011;71993;52.478;-1.918;2023-09-07T03:26:13;8.50;;;7.60;;
61330;SDS011;71993;52.478;-1.918;2023-09-07T03:28:43;8.57;;;7.35;;
61330;SDS011;71993;52.478;-1.918;2023-09-07T03:31:14;8.80;;;7.90;;
61330;SDS011;71993;52.478;-1.918;2023-09-07T03:33:44;8.68;;;7.78;;
61330;SDS011;71993;52.478;-1.918;2023-09-07T03:36:14;9.18;;;7.78;;
61330;SDS011;71993;52.478;-1.918;2023-09-07T03:38:48;8.55;;;7.07;;
61330;SDS011;71993;52.478;-1.918;2023-09-07T03:41:18;9.75;;;6.72;;
61330;SDS011;71993;52.478;-1.918;2023-09-07T03:43:49;7.60;;;6.78;;
61330;SDS011;71993;52.478;-1.918;2023-09-07T03:46:19;9.00;;;8.10;;
61330;SDS011;71993;52.478;-1.918;2023-09-07T03:48:50;9.52;;;7.43;;
61330;SDS011;71993;52.478;-1.918;2023-09-07T03:51:20;9.07;;;7.53;;
61330;SDS011;71993;52.478;-1.918;2023-09-07T03:53:54;8.63;;;7.72;;
61330;SDS011;71993;52.478;-1.918;2023-09-07T03:56:26;7.63;;;6.93;;
61330;SDS011;71993;52.478;-1.918;2023-09-07T03:58:56;8.23;;;6.28;;
61330;SDS011;71993;52.478;-1.918;2023-09-07T04:01:27;7.03;;;6.32;;
61330;SDS011;71993;52.478;-1.918;2023-09-07T04:03:58;8.05;;;6.60;;
61330;SDS011;71993;52.478;-1.918;2023-09-07T04:06:28;8.43;;;7.40;;
61330;SDS011;71993;52.478;-1.918;2023-09-07T04:09:01;8.20;;;7.30;;
61330;SDS011;71993;52.478;-1.918;2023-09-07T04:11:33;8.68;;;7.32;;
61330;SDS011;71993;52.478;-1.918;2023-09-07T04:14:04;8.90;;;8.00;;
61330;SDS011;71993;52.478;-1.918;2023-09-07T04:16:35;8.88;;;7.53;;
61330;SDS011;71993;52.478;-1.918;2023-09-07T04:19:05;8.27;;;7.40;;
61330;SDS011;71993;52.478;-1.918;2023-09-07T04:21:36;7.93;;;6.78;;
61330;SDS011;71993;52.478;-1.918;2023-09-07T04:24:10;8.05;;;6.93;;
61330;SDS011;71993;52.478;-1.918;2023-09-07T04:26:40;8.05;;;6.75;;
61330;SDS011;71993;52.478;-1.918;2023-09-07T04:29:11;8.32;;;7.43;;
61330;SDS011;71993;52.478;-1.918;2023-09-07T04:31:42;10.77;;;7.47;;
61330;SDS011;71993;52.478;-1.918;2023-09-07T04:34:12;8.93;;;6.85;;
61330;SDS011;71993;52.478;-1.918;2023-09-07T04:36:43;8.30;;;7.50;;
61330;SDS011;71993;52.478;-1.918;2023-09-07T04:39:16;7.93;;;7.13;;
61330;SDS011;71993;52.478;-1.918;2023-09-07T04:41:47;9.80;;;6.93;;
61330;SDS011;71993;52.478;-1.918;2023-09-07T04:44:20;8.30;;;6.47;;
61330;SDS011;71993;52.478;-1.918;2023-09-07T04:46:48;8.15;;;6.40;;
61330;SDS011;71993;52.478;-1.918;2023-09-07T04:49:20;7.88;;;6.05;;
61330;SDS011;71993;52.478;-1.918;2023-09-07T04:51:52;7.25;;;6.55;;
61330;SDS011;71993;52.478;-1.918;2023-09-07T04:54:26;7.22;;;6.53;;
61330;SDS011;71993;52.478;-1.918;2023-09-07T04:56:57;6.97;;;6.28;;
61330;SDS011;71993;52.478;-1.918;2023-09-07T04:59:27;7.13;;;6.32;;
61330;SDS011;71993;52.478;-1.918;2023-09-07T05:01:59;7.63;;;6.18;;
61330;SDS011;71993;52.478;-1.918;2023-09-07T05:04:30;6.82;;;5.85;;
61330;SDS011;71993;52.478;-1.918;2023-09-07T05:07:01;6.38;;;5.72;;
61330;SDS011;71993;52.478;-1.918;2023-09-07T05:09:34;6.75;;;6.05;;
61330;SDS011;71993;52.478;-1.918;2023-09-07T05:12:02;8.10;;;6.25;;
61330;SDS011;71993;52.478;-1.918;2023-09-07T05:14:33;7.97;;;6.53;;
61330;SDS011;71993;52.478;-1.918;2023-09-07T05:17:03;7.28;;;6.50;;
61330;SDS011;71993;52.478;-1.918;2023-09-07T05:19:34;7.88;;;6.40;;
61330;SDS011;71993;52.478;-1.918;2023-09-07T05:22:05;8.18;;;6.70;;
61330;SDS011;71993;52.478;-1.918;2023-09-07T05:24:40;6.88;;;5.97;;
61330;SDS011;71993;52.478;-1.918;2023-09-07T05:27:12;7.72;;;6.43;;
61330;SDS011;71993;52.478;-1.918;2023-09-07T05:29:43;9.45;;;6.53;;
61330;SDS011;71993;52.478;-1.918;2023-09-07T05:32:13;8.10;;;6.43;;
61330;SDS011;71993;52.478;-1.918;2023-09-07T05:34:44;9.40;;;7.43;;
61330;SDS011;71993;52.478;-1.918;2023-09-07T05:37:15;7.97;;;7.18;;
61330;SDS011;71993;52.478;-1.918;2023-09-07T05:39:48;9.38;;;6.53;;
61330;SDS011;71993;52.478;-1.918;2023-09-07T05:42:19;9.05;;;6.63;;
61330;SDS011;71993;52.478;-1.918;2023-09-07T05:44:50;8.60;;;6.95;;
61330;SDS011;71993;52.478;-1.918;2023-09-07T05:47:20;7.38;;;6.22;;
61330;SDS011;71993;52.478;-1.918;2023-09-07T05:49:53;7.70;;;6.38;;
61330;SDS011;71993;52.478;-1.918;2023-09-07T05:52:24;8.25;;;6.18;;
61330;SDS011;71993;52.478;-1.918;2023-09-07T05:54:58;8.45;;;6.78;;
61330;SDS011;71993;52.478;-1.918;2023-09-07T05:57:29;7.05;;;6.30;;
61330;SDS011;71993;52.478;-1.918;2023-09-07T05:59:59;7.50;;;6.32;;
61330;SDS011;71993;52.478;-1.918;2023-09-07T06:02:40;7.40;;;6.07;;
61330;SDS011;71993;52.478;-1.918;2023-09-07T06:05:13;7.55;;;6.43;;
61330;SDS011;71993;52.478;-1.918;2023-09-07T06:07:44;9.35;;;7.05;;
61330;SDS011;71993;52.478;-1.918;2023-09-07T06:10:19;9.55;;;7.85;;
61330;SDS011;71993;52.478;-1.918;2023-09-07T06:12:50;8.38;;;7.03;;
61330;SDS011;71993;52.478;-1.918;2023-09-07T06:15:22;10.10;;;8.20;;
61330;SDS011;71993;52.478;-1.918;2023-09-07T06:17:53;8.38;;;7.55;;
61330;SDS011;71993;52.478;-1.918;2023-09-07T06:20:24;9.52;;;7.05;;
61330;SDS011;71993;52.478;-1.918;2023-09-07T06:22:57;8.48;;;7.57;;
61330;SDS011;71993;52.478;-1.918;2023-09-07T06:25:30;10.52;;;8.32;;
61330;SDS011;71993;52.478;-1.918;2023-09-07T06:28:02;12.07;;;9.10;;
61330;SDS011;71993;52.478;-1.918;2023-09-07T06:30:33;9.98;;;8.80;;
61330;SDS011;71993;52.478;-1.918;2023-09-07T06:33:04;8.90;;;8.00;;
61330;SDS011;71993;52.478;-1.918;2023-09-07T06:35:35;7.90;;;7.10;;
61330;SDS011;71993;52.478;-1.918;2023-09-07T06:38:05;9.10;;;7.55;;
61330;SDS011;71993;52.478;-1.918;2023-09-07T06:40:39;9.90;;;7.90;;
61330;SDS011;71993;52.478;-1.918;2023-09-07T06:43:09;13.02;;;8.27;;
61330;SDS011;71993;52.478;-1.918;2023-09-07T06:45:41;11.65;;;7.43;;
61330;SDS011;71993;52.478;-1.918;2023-09-07T06:48:11;9.68;;;7.85;;
61330;SDS011;71993;52.478;-1.918;2023-09-07T06:50:42;8.23;;;7.32;;
61330;SDS011;71993;52.478;-1.918;2023-09-07T06:53:13;8.43;;;7.53;;
61330;SDS011;71993;52.478;-1.918;2023-09-07T06:55:47;7.82;;;7.03;;
61330;SDS011;71993;52.478;-1.918;2023-09-07T06:58:18;9.75;;;7.07;;
61330;SDS011;71993;52.478;-1.918;2023-09-07T07:00:49;8.60;;;6.78;;
61330;SDS011;71993;52.478;-1.918;2023-09-07T07:03:19;7.20;;;6.50;;
61330;SDS011;71993;52.478;-1.918;2023-09-07T07:05:50;7.53;;;6.63;;
61330;SDS011;71993;52.478;-1.918;2023-09-07T07:08:21;7.70;;;6.30;;
61330;SDS011;71993;52.478;-1.918;2023-09-07T07:10:54;8.13;;;7.03;;
61330;SDS011;71993;52.478;-1.918;2023-09-07T07:13:25;11.25;;;8.05;;
61330;SDS011;71993;52.478;-1.918;2023-09-07T07:15:58;10.35;;;7.90;;
61330;SDS011;71993;52.478;-1.918;2023-09-07T07:18:28;8.35;;;7.05;;
61330;SDS011;71993;52.478;-1.918;2023-09-07T07:21:02;8.48;;;7.60;;
61330;SDS011;71993;52.478;-1.918;2023-09-07T07:23:32;8.15;;;7.10;;
61330;SDS011;71993;52.478;-1.918;2023-09-07T07:26:06;8.90;;;7.28;;
61330;SDS011;71993;52.478;-1.918;2023-09-07T07:28:37;8.52;;;7.57;;
61330;SDS011;71993;52.478;-1.918;2023-09-07T07:31:08;8.85;;;7.90;;
61330;SDS011;71993;52.478;-1.918;2023-09-07T07:33:41;8.50;;;7.38;;
61330;SDS011;71993;52.478;-1.918;2023-09-07T07:36:12;7.18;;;6.47;;
61330;SDS011;71993;52.478;-1.918;2023-09-07T07:38:43;6.97;;;6.28;;
61330;SDS011;71993;52.478;-1.918;2023-09-07T07:41:17;7.63;;;6.65;;
61330;SDS011;71993;52.478;-1.918;2023-09-07T07:43:48;8.60;;;7.70;;
61330;SDS011;71993;52.478;-1.918;2023-09-07T07:46:18;6.63;;;5.90;;
61330;SDS011;71993;52.478;-1.918;2023-09-07T07:48:49;7.88;;;6.43;;
61330;SDS011;71993;52.478;-1.918;2023-09-07T07:51:20;8.85;;;7.93;;
61330;SDS011;71993;52.478;-1.918;2023-09-07T07:53:53;8.25;;;6.82;;
61330;SDS011;71993;52.478;-1.918;2023-09-07T07:56:27;9.50;;;8.50;;
61330;SDS011;71993;52.478;-1.918;2023-09-07T07:58:58;7.85;;;6.80;;
61330;SDS011;71993;52.478;-1.918;2023-09-07T08:01:29;8.40;;;6.97;;
61330;SDS011;71993;52.478;-1.918;2023-09-07T08:04:01;7.70;;;6.20;;
61330;SDS011;71993;52.478;-1.918;2023-09-07T08:06:32;8.75;;;6.90;;
61330;SDS011;71993;52.478;-1.918;2023-09-07T08:09:04;9.13;;;7.50;;
61330;SDS011;71993;52.478;-1.918;2023-09-07T08:11:38;10.55;;;8.57;;
61330;SDS011;71993;52.478;-1.918;2023-09-07T08:14:09;9.55;;;8.38;;
61330;SDS011;71993;52.478;-1.918;2023-09-07T08:16:40;10.23;;;8.63;;
61330;SDS011;71993;52.478;-1.918;2023-09-07T08:19:10;9.13;;;8.10;;
61330;SDS011;71993;52.478;-1.918;2023-09-07T08:21:42;7.90;;;6.82;;
61330;SDS011;71993;52.478;-1.918;2023-09-07T08:24:13;8.35;;;6.95;;
61330;SDS011;71993;52.478;-1.918;2023-09-07T08:26:49;10.50;;;8.77;;
61330;SDS011;71993;52.478;-1.918;2023-09-07T08:29:22;10.45;;;7.88;;
61330;SDS011;71993;52.478;-1.918;2023-09-07T08:31:54;9.32;;;7.95;;
61330;SDS011;71993;52.478;-1.918;2023-09-07T08:34:24;10.43;;;7.90;;
61330;SDS011;71993;52.478;-1.918;2023-09-07T08:36:55;11.88;;;9.45;;
61330;SDS011;71993;52.478;-1.918;2023-09-07T08:39:26;11.18;;;9.20;;
61330;SDS011;71993;52.478;-1.918;2023-09-07T08:41:59;8.68;;;7.78;;
61330;SDS011;71993;52.478;-1.918;2023-09-07T08:44:30;7.70;;;6.90;;
61330;SDS011;71993;52.478;-1.918;2023-09-07T08:47:03;9.02;;;7.43;;
61330;SDS011;71993;52.478;-1.918;2023-09-07T08:49:34;9.00;;;7.70;;
61330;SDS011;71993;52.478;-1.918;2023-09-07T08:52:05;11.70;;;9.80;;
61330;SDS011;71993;52.478;-1.918;2023-09-07T08:54:36;11.93;;;9.52;;
61330;SDS011;71993;52.478;-1.918;2023-09-07T08:57:10;12.20;;;10.35;;
61330;SDS011;71993;52.478;-1.918;2023-09-07T08:59:41;12.75;;;10.27;;
61330;SDS011;71993;52.478;-1.918;2023-09-07T09:02:12;12.73;;;10.25;;
61330;SDS011;71993;52.478;-1.918;2023-09-07T09:04:44;11.68;;;9.98;;
61330;SDS011;71993;52.478;-1.918;2023-09-07T09:07:14;12.63;;;10.13;;
61330;SDS011;71993;52.478;-1.918;2023-09-07T09:09:45;10.73;;;8.93;;
61330;SDS011;71993;52.478;-1.918;2023-09-07T09:12:18;11.45;;;9.30;;
61330;SDS011;71993;52.478;-1.918;2023-09-07T09:14:48;11.48;;;9.27;;
61330;SDS011;71993;52.478;-1.918;2023-09-07T09:17:19;13.88;;;10.40;;
61330;SDS011;71993;52.478;-1.918;2023-09-07T09:19:49;11.98;;;9.80;;
61330;SDS011;71993;52.478;-1.918;2023-09-07T09:22:20;12.45;;;10.35;;
61330;SDS011;71993;52.478;-1.918;2023-09-07T09:24:51;13.98;;;10.90;;
61330;SDS011;71993;52.478;-1.918;2023-09-07T09:27:25;14.15;;;9.20;;
61330;SDS011;71993;52.478;-1.918;2023-09-07T09:29:56;8.52;;;7.60;;
61330;SDS011;71993;52.478;-1.918;2023-09-07T09:32:28;9.98;;;8.65;;
61330;SDS011;71993;52.478;-1.918;2023-09-07T09:34:59;12.38;;;8.73;;
61330;SDS011;71993;52.478;-1.918;2023-09-07T09:37:31;11.07;;;8.55;;
61330;SDS011;71993;52.478;-1.918;2023-09-07T09:40:01;11.23;;;8.25;;
61330;SDS011;71993;52.478;-1.918;2023-09-07T09:42:35;15.85;;;10.15;;
61330;SDS011;71993;52.478;-1.918;2023-09-07T09:45:06;12.68;;;9.40;;
61330;SDS011;71993;52.478;-1.918;2023-09-07T09:47:38;12.35;;;9.18;;
61330;SDS011;71993;52.478;-1.918;2023-09-07T09:50:10;11.60;;;9.02;;
61330;SDS011;71993;52.478;-1.918;2023-09-07T09:52:40;10.02;;;8.40;;
61330;SDS011;71993;52.478;-1.918;2023-09-07T09:55:11;10.25;;;9.05;;
61330;SDS011;71993;52.478;-1.918;2023-09-07T09:57:45;11.55;;;8.93;;
61330;SDS011;71993;52.478;-1.918;2023-09-07T10:00:18;9.35;;;8.25;;
61330;SDS011;71993;52.478;-1.918;2023-09-07T10:02:59;10.30;;;8.33;;
61330;SDS011;71993;52.478;-1.918;2023-09-07T10:05:31;9.55;;;8.35;;
61330;SDS011;71993;52.478;-1.918;2023-09-07T10:08:02;7.57;;;6.85;;
61330;SDS011;71993;52.478;-1.918;2023-09-07T10:10:36;8.90;;;6.80;;
61330;SDS011;71993;52.478;-1.918;2023-09-07T10:13:13;8.23;;;6.35;;
61330;SDS011;71993;52.478;-1.918;2023-09-07T10:15:44;9.20;;;7.10;;
61330;SDS011;71993;52.478;-1.918;2023-09-07T10:18:15;7.60;;;6.80;;
61330;SDS011;71993;52.478;-1.918;2023-09-07T10:20:46;10.35;;;8.70;;
61330;SDS011;71993;52.478;-1.918;2023-09-07T10:23:18;10.60;;;8.95;;
61330;SDS011;71993;52.478;-1.918;2023-09-07T10:25:50;16.77;;;11.38;;
61330;SDS011;71993;52.478;-1.918;2023-09-07T10:28:23;15.25;;;11.50;;
61330;SDS011;71993;52.478;-1.918;2023-09-07T10:31:01;27.38;;;20.80;;
61330;SDS011;71993;52.478;-1.918;2023-09-07T10:33:32;66.20;;;46.55;;
61330;SDS011;71993;52.478;-1.918;2023-09-07T10:36:03;69.63;;;47.88;;
61330;SDS011;71993;52.478;-1.918;2023-09-07T10:38:34;51.70;;;38.15;;
61330;SDS011;71993;52.478;-1.918;2023-09-07T10:41:08;49.05;;;36.05;;
61330;SDS011;71993;52.478;-1.918;2023-09-07T10:43:48;48.70;;;34.08;;
61330;SDS011;71993;52.478;-1.918;2023-09-07T10:46:19;41.65;;;30.92;;
61330;SDS011;71993;52.478;-1.918;2023-09-07T10:48:50;34.10;;;25.05;;
61330;SDS011;71993;52.478;-1.918;2023-09-07T10:51:21;34.15;;;23.70;;
61330;SDS011;71993;52.478;-1.918;2023-09-07T10:53:52;33.00;;;23.77;;
61330;SDS011;71993;52.478;-1.918;2023-09-07T10:56:24;27.83;;;18.98;;
61330;SDS011;71993;52.478;-1.918;2023-09-07T10:58:57;26.88;;;18.60;;
61330;SDS011;71993;52.478;-1.918;2023-09-07T11:01:28;25.90;;;18.10;;
61330;SDS011;71993;52.478;-1.918;2023-09-07T11:03:58;22.52;;;17.15;;
61330;SDS011;71993;52.478;-1.918;2023-09-07T11:06:29;19.08;;;15.68;;
61330;SDS011;71993;52.478;-1.918;2023-09-07T11:09:00;17.13;;;13.55;;
61330;SDS011;71993;52.478;-1.918;2023-09-07T11:11:32;16.83;;;11.93;;
61330;SDS011;71993;52.478;-1.918;2023-09-07T11:14:06;15.27;;;11.30;;
61330;SDS011;71993;52.478;-1.918;2023-09-07T11:16:36;11.73;;;10.18;;
61330;SDS011;71993;52.478;-1.918;2023-09-07T11:19:07;12.02;;;9.52;;
61330;SDS011;71993;52.478;-1.918;2023-09-07T11:21:39;11.20;;;9.48;;
61330;SDS011;71993;52.478;-1.918;2023-09-07T11:24:10;12.00;;;9.43;;
61330;SDS011;71993;52.478;-1.918;2023-09-07T11:26:41;12.95;;;9.57;;
61330;SDS011;71993;52.478;-1.918;2023-09-07T11:29:16;12.75;;;9.13;;
61330;SDS011;71993;52.478;-1.918;2023-09-07T11:31:46;10.13;;;8.13;;
61330;SDS011;71993;52.478;-1.918;2023-09-07T11:34:17;10.75;;;8.38;;
61330;SDS011;71993;52.478;-1.918;2023-09-07T11:36:48;9.15;;;7.60;;
61330;SDS011;71993;52.478;-1.918;2023-09-07T11:39:19;10.18;;;8.43;;
61330;SDS011;71993;52.478;-1.918;2023-09-07T11:41:49;13.20;;;9.00;;
61330;SDS011;71993;52.478;-1.918;2023-09-07T11:44:22;13.10;;;8.75;;
61330;SDS011;71993;52.478;-1.918;2023-09-07T11:46:53;9.60;;;8.23;;
61330;SDS011;71993;52.478;-1.918;2023-09-07T11:49:24;11.02;;;8.00;;
61330;SDS011;71993;52.478;-1.918;2023-09-07T11:51:54;8.10;;;7.30;;
61330;SDS011;71993;52.478;-1.918;2023-09-07T11:54:25;8.38;;;6.88;;
61330;SDS011;71993;52.478;-1.918;2023-09-07T11:56:56;7.68;;;6.53;;
61330;SDS011;71993;52.478;-1.918;2023-09-07T11:59:30;7.55;;;6.25;;
61330;SDS011;71993;52.478;-1.918;2023-09-07T12:02:01;7.00;;;6.25;;
61330;SDS011;71993;52.478;-1.918;2023-09-07T12:04:32;7.47;;;6.00;;
61330;SDS011;71993;52.478;-1.918;2023-09-07T12:07:05;6.57;;;5.97;;
61330;SDS011;71993;52.478;-1.918;2023-09-07T12:09:36;7.05;;;6.13;;
61330;SDS011;71993;52.478;-1.918;2023-09-07T12:12:07;7.30;;;6.28;;
61330;SDS011;71993;52.478;-1.918;2023-09-07T12:14:40;8.57;;;5.90;;
61330;SDS011;71993;52.478;-1.918;2023-09-07T12:17:11;7.72;;;5.88;;
61330;SDS011;71993;52.478;-1.918;2023-09-07T12:19:42;7.25;;;5.78;;
61330;SDS011;71993;52.478;-1.918;2023-09-07T12:22:13;6.25;;;5.45;;
61330;SDS011;71993;52.478;-1.918;2023-09-07T12:24:44;6.15;;;5.20;;
61330;SDS011;71993;52.478;-1.918;2023-09-07T12:27:14;6.05;;;5.45;;
61330;SDS011;71993;52.478;-1.918;2023-09-07T12:29:48;9.35;;;6.45;;
61330;SDS011;71993;52.478;-1.918;2023-09-07T12:32:19;6.25;;;5.53;;
61330;SDS011;71993;52.478;-1.918;2023-09-07T12:34:50;8.00;;;5.53;;
61330;SDS011;71993;52.478;-1.918;2023-09-07T12:37:23;6.28;;;5.68;;
61330;SDS011;71993;52.478;-1.918;2023-09-07T12:39:53;5.53;;;4.95;;
61330;SDS011;71993;52.478;-1.918;2023-09-07T12:42:24;5.70;;;4.88;;
61330;SDS011;71993;52.478;-1.918;2023-09-07T12:45:00;7.28;;;5.60;;
61330;SDS011;71993;52.478;-1.918;2023-09-07T12:47:32;6.20;;;5.22;;
61330;SDS011;71993;52.478;-1.918;2023-09-07T12:50:02;8.57;;;6.18;;
61330;SDS011;71993;52.478;-1.918;2023-09-07T12:52:34;7.60;;;5.70;;
61330;SDS011;71993;52.478;-1.918;2023-09-07T12:55:06;6.28;;;4.93;;
61330;SDS011;71993;52.478;-1.918;2023-09-07T12:57:37;5.68;;;4.78;;
61330;SDS011;71993;52.478;-1.918;2023-09-07T13:00:11;5.75;;;5.25;;
61330;SDS011;71993;52.478;-1.918;2023-09-07T13:02:42;6.50;;;5.13;;
61330;SDS011;71993;52.478;-1.918;2023-09-07T13:05:13;5.32;;;4.75;;
61330;SDS011;71993;52.478;-1.918;2023-09-07T13:07:43;8.40;;;5.50;;
61330;SDS011;71993;52.478;-1.918;2023-09-07T13:10:14;5.25;;;4.75;;
61330;SDS011;71993;52.478;-1.918;2023-09-07T13:12:44;5.15;;;4.65;;
61330;SDS011;71993;52.478;-1.918;2023-09-07T13:15:17;5.20;;;4.70;;
61330;SDS011;71993;52.478;-1.918;2023-09-07T13:17:48;4.88;;;4.47;;
61330;SDS011;71993;52.478;-1.918;2023-09-07T13:20:18;5.32;;;4.47;;
61330;SDS011;71993;52.478;-1.918;2023-09-07T13:22:50;5.43;;;4.93;;
61330;SDS011;71993;52.478;-1.918;2023-09-07T13:25:20;6.55;;;4.80;;
61330;SDS011;71993;52.478;-1.918;2023-09-07T13:27:51;5.35;;;4.85;;
61330;SDS011;71993;52.478;-1.918;2023-09-07T13:30:24;5.43;;;4.65;;
61330;SDS011;71993;52.478;-1.918;2023-09-07T13:32:54;5.25;;;4.75;;
61330;SDS011;71993;52.478;-1.918;2023-09-07T13:35:25;5.40;;;4.90;;
61330;SDS011;71993;52.478;-1.918;2023-09-07T13:37:56;5.47;;;4.68;;
61330;SDS011;71993;52.478;-1.918;2023-09-07T13:40:26;6.22;;;4.85;;
61330;SDS011;71993;52.478;-1.918;2023-09-07T13:42:57;6.07;;;4.82;;
61330;SDS011;71993;52.478;-1.918;2023-09-07T13:45:30;6.30;;;5.38;;
61330;SDS011;71993;52.478;-1.918;2023-09-07T13:48:01;8.77;;;6.10;;
61330;SDS011;71993;52.478;-1.918;2023-09-07T13:50:32;5.65;;;5.15;;
61330;SDS011;71993;52.478;-1.918;2023-09-07T13:53:02;6.97;;;5.28;;
61330;SDS011;71993;52.478;-1.918;2023-09-07T13:55:33;8.15;;;5.13;;
61330;SDS011;71993;52.478;-1.918;2023-09-07T13:58:07;7.50;;;5.05;;
61330;SDS011;71993;52.478;-1.918;2023-09-07T14:00:40;5.03;;;4.53;;
61330;SDS011;71993;52.478;-1.918;2023-09-07T14:03:10;5.25;;;4.60;;
61330;SDS011;71993;52.478;-1.918;2023-09-07T14:05:42;5.22;;;4.72;;
61330;SDS011;71993;52.478;-1.918;2023-09-07T14:08:13;4.72;;;4.32;;
61330;SDS011;71993;52.478;-1.918;2023-09-07T14:10:44;5.45;;;4.90;;
61330;SDS011;71993;52.478;-1.918;2023-09-07T14:13:15;4.82;;;4.43;;
61330;SDS011;71993;52.478;-1.918;2023-09-07T14:15:48;5.18;;;4.68;;
61330;SDS011;71993;52.478;-1.918;2023-09-07T14:18:18;6.00;;;4.80;;
61330;SDS011;71993;52.478;-1.918;2023-09-07T14:20:49;5.00;;;4.50;;
61330;SDS011;71993;52.478;-1.918;2023-09-07T14:23:20;5.30;;;4.80;;
61330;SDS011;71993;52.478;-1.918;2023-09-07T14:25:51;6.00;;;4.70;;
61330;SDS011;71993;52.478;-1.918;2023-09-07T14:28:21;8.77;;;4.95;;
61330;SDS011;71993;52.478;-1.918;2023-09-07T14:30:54;4.75;;;4.30;;
61330;SDS011;71993;52.478;-1.918;2023-09-07T14:33:26;4.85;;;4.35;;
61330;SDS011;71993;52.478;-1.918;2023-09-07T14:35:56;6.50;;;4.55;;
61330;SDS011;71993;52.478;-1.918;2023-09-07T14:38:27;4.80;;;4.30;;
61330;SDS011;71993;52.478;-1.918;2023-09-07T14:40:58;5.20;;;4.32;;
61330;SDS011;71993;52.478;-1.918;2023-09-07T14:43:28;4.72;;;4.32;;
61330;SDS011;71993;52.478;-1.918;2023-09-07T14:46:01;4.97;;;4.47;;
61330;SDS011;71993;52.478;-1.918;2023-09-07T14:48:33;7.22;;;4.97;;
61330;SDS011;71993;52.478;-1.918;2023-09-07T14:51:03;6.22;;;4.95;;
61330;SDS011;71993;52.478;-1.918;2023-09-07T14:53:34;5.63;;;5.03;;